< < Back
Terminal Aerodrome Forecast


Current Version              Previous Versions:   1  2  3  4  5  6  7  8  9  

Terminal Aerodrome Forecast

170
FTUS44 KBMX 301304 AAA
TAFTCL
TAF AMD
KTCL 301304Z 3013/3112 29008KT P6SM BKN015 OVC020
      TEMPO 3014/3016 SCT015 BKN035
     FM301600 30006KT P6SM FEW040
     FM310000 00000KT P6SM SKC=

Latest METAR

874
SAUS70 KWBC 310500 RRD
MTRTCL
METAR KTCL 310453Z AUTO 00000KT 9SM CLR 13/11 A3011 RMK AO2 SLP194
T01280106


USA.gov is the U.S. government's official web portal to all federal, state and local government web resources and services.